<?xml version="1.0" encoding="UTF-8" standalone="no" ?>
<gpx xmlns="http://www.topografix.com/GPX/1/1" xmlns:xsi="http://www.w3.org/2001/XMLSchema-instance" xsi:schemaLocation="http://www.topografix.com/GPX/1/1 http://www.topografix.com/GPX/1/1/gpx.xsd" version="1.1" creator="VisuGPX - https://www.visugpx.com">
  <metadata>
    <name>2025 08 06 Ste Colombe de Villeneuve 10.5 km</name>
  </metadata>
  <trk>
    <name><![CDATA[2025 08 06 Ste Colombe de Villeneuve 10]]></name>
    <extensions>
      <line xmlns="http://www.topografix.com/GPX/gpx_style/0/2">
        <color>0000FF</color>
        <width>4</width>
      </line>
    </extensions>
    <trkseg>
      <trkpt lat="44.34135" lon="0.65709">
        <ele>196.1</ele>
        <time>2025-08-06T06:49:16.712Z</time>
      </trkpt>
      <trkpt lat="44.34118" lon="0.65671">
        <ele>197.7</ele>
        <time>2025-08-06T06:50:25.712Z</time>
      </trkpt>
      <trkpt lat="44.34107" lon="0.65677">
        <ele>198.2</ele>
        <time>2025-08-06T06:50:33.712Z</time>
      </trkpt>
      <trkpt lat="44.34087" lon="0.65676">
        <ele>199.4</ele>
        <time>2025-08-06T06:50:49.712Z</time>
      </trkpt>
      <trkpt lat="44.34079" lon="0.65678">
        <ele>199.6</ele>
        <time>2025-08-06T06:50:57.712Z</time>
      </trkpt>
      <trkpt lat="44.34062" lon="0.65676">
        <ele>199.7</ele>
        <time>2025-08-06T06:51:13.712Z</time>
      </trkpt>
      <trkpt lat="44.34053" lon="0.65673">
        <ele>199.8</ele>
        <time>2025-08-06T06:51:21.712Z</time>
      </trkpt>
      <trkpt lat="44.34044" lon="0.65671">
        <ele>199.8</ele>
        <time>2025-08-06T06:51:29.712Z</time>
      </trkpt>
      <trkpt lat="44.34028" lon="0.65664">
        <ele>200</ele>
        <time>2025-08-06T06:51:45.712Z</time>
      </trkpt>
      <trkpt lat="44.3401" lon="0.65653">
        <ele>199</ele>
        <time>2025-08-06T06:52:01.712Z</time>
      </trkpt>
      <trkpt lat="44.33978" lon="0.65627">
        <ele>197.7</ele>
        <time>2025-08-06T06:52:33.712Z</time>
      </trkpt>
      <trkpt lat="44.33958" lon="0.65616">
        <ele>198.3</ele>
        <time>2025-08-06T06:52:49.712Z</time>
      </trkpt>
      <trkpt lat="44.33948" lon="0.65614">
        <ele>198.7</ele>
        <time>2025-08-06T06:52:57.712Z</time>
      </trkpt>
      <trkpt lat="44.33938" lon="0.65613">
        <ele>199.3</ele>
        <time>2025-08-06T06:53:05.712Z</time>
      </trkpt>
      <trkpt lat="44.33929" lon="0.65616">
        <ele>199.8</ele>
        <time>2025-08-06T06:53:13.712Z</time>
      </trkpt>
      <trkpt lat="44.3392" lon="0.65619">
        <ele>200.2</ele>
        <time>2025-08-06T06:53:21.712Z</time>
      </trkpt>
      <trkpt lat="44.33902" lon="0.65633">
        <ele>200.9</ele>
        <time>2025-08-06T06:53:37.712Z</time>
      </trkpt>
      <trkpt lat="44.33748" lon="0.65805">
        <ele>202.1</ele>
        <time>2025-08-06T06:56:25.712Z</time>
      </trkpt>
      <trkpt lat="44.3374" lon="0.65811">
        <ele>202.2</ele>
        <time>2025-08-06T06:56:33.712Z</time>
      </trkpt>
      <trkpt lat="44.33737" lon="0.65811">
        <ele>202.3</ele>
        <time>2025-08-06T06:56:35.712Z</time>
      </trkpt>
      <trkpt lat="44.33734" lon="0.65808">
        <ele>202.5</ele>
        <time>2025-08-06T06:56:39.712Z</time>
      </trkpt>
      <trkpt lat="44.33714" lon="0.65762">
        <ele>203.7</ele>
        <time>2025-08-06T06:57:11.712Z</time>
      </trkpt>
      <trkpt lat="44.33698" lon="0.65733">
        <ele>206.8</ele>
        <time>2025-08-06T06:57:35.712Z</time>
      </trkpt>
      <trkpt lat="44.33697" lon="0.65729">
        <ele>207.2</ele>
        <time>2025-08-06T06:57:39.712Z</time>
      </trkpt>
      <trkpt lat="44.33692" lon="0.6572">
        <ele>208.5</ele>
        <time>2025-08-06T06:57:47.712Z</time>
      </trkpt>
      <trkpt lat="44.33686" lon="0.65709">
        <ele>210.1</ele>
        <time>2025-08-06T06:57:55.712Z</time>
      </trkpt>
      <trkpt lat="44.3368" lon="0.65694">
        <ele>211.5</ele>
        <time>2025-08-06T07:00:17.712Z</time>
      </trkpt>
      <trkpt lat="44.33668" lon="0.65694">
        <ele>212</ele>
        <time>2025-08-06T07:00:25.712Z</time>
      </trkpt>
      <trkpt lat="44.33656" lon="0.65692">
        <ele>211.7</ele>
        <time>2025-08-06T07:00:37.712Z</time>
      </trkpt>
      <trkpt lat="44.33651" lon="0.65694">
        <ele>211.5</ele>
        <time>2025-08-06T07:00:41.712Z</time>
      </trkpt>
      <trkpt lat="44.33642" lon="0.65694">
        <ele>211.1</ele>
        <time>2025-08-06T07:00:49.712Z</time>
      </trkpt>
      <trkpt lat="44.33612" lon="0.65684">
        <ele>209.7</ele>
        <time>2025-08-06T07:01:17.712Z</time>
      </trkpt>
      <trkpt lat="44.3361" lon="0.65681">
        <ele>209.4</ele>
        <time>2025-08-06T07:01:19.712Z</time>
      </trkpt>
      <trkpt lat="44.336" lon="0.65679">
        <ele>208.4</ele>
        <time>2025-08-06T07:01:27.712Z</time>
      </trkpt>
      <trkpt lat="44.33597" lon="0.65674">
        <ele>208.1</ele>
        <time>2025-08-06T07:01:31.712Z</time>
      </trkpt>
      <trkpt lat="44.33584" lon="0.65665">
        <ele>207</ele>
        <time>2025-08-06T07:01:43.712Z</time>
      </trkpt>
      <trkpt lat="44.33576" lon="0.65662">
        <ele>206.4</ele>
        <time>2025-08-06T07:01:53.712Z</time>
      </trkpt>
      <trkpt lat="44.33569" lon="0.65657">
        <ele>205.8</ele>
        <time>2025-08-06T07:02:01.712Z</time>
      </trkpt>
      <trkpt lat="44.33558" lon="0.65644">
        <ele>205.1</ele>
        <time>2025-08-06T07:02:17.712Z</time>
      </trkpt>
      <trkpt lat="44.33531" lon="0.65622">
        <ele>203.7</ele>
        <time>2025-08-06T07:02:41.712Z</time>
      </trkpt>
      <trkpt lat="44.33523" lon="0.6562">
        <ele>203.4</ele>
        <time>2025-08-06T07:02:51.712Z</time>
      </trkpt>
      <trkpt lat="44.33518" lon="0.65615">
        <ele>203.2</ele>
        <time>2025-08-06T07:02:53.712Z</time>
      </trkpt>
      <trkpt lat="44.33512" lon="0.65613">
        <ele>202.8</ele>
        <time>2025-08-06T07:02:59.712Z</time>
      </trkpt>
      <trkpt lat="44.33511" lon="0.65608">
        <ele>202.8</ele>
        <time>2025-08-06T07:03:03.712Z</time>
      </trkpt>
      <trkpt lat="44.33527" lon="0.65571">
        <ele>204.4</ele>
        <time>2025-08-06T07:03:27.712Z</time>
      </trkpt>
      <trkpt lat="44.33537" lon="0.65535">
        <ele>205.2</ele>
        <time>2025-08-06T07:03:51.712Z</time>
      </trkpt>
      <trkpt lat="44.33538" lon="0.65522">
        <ele>205.5</ele>
        <time>2025-08-06T07:03:59.712Z</time>
      </trkpt>
      <trkpt lat="44.33535" lon="0.65517">
        <ele>205.6</ele>
        <time>2025-08-06T07:04:01.712Z</time>
      </trkpt>
      <trkpt lat="44.33535" lon="0.65505">
        <ele>205.9</ele>
        <time>2025-08-06T07:04:09.712Z</time>
      </trkpt>
      <trkpt lat="44.33537" lon="0.65492">
        <ele>206.2</ele>
        <time>2025-08-06T07:04:17.712Z</time>
      </trkpt>
      <trkpt lat="44.33558" lon="0.65445">
        <ele>208.2</ele>
        <time>2025-08-06T07:04:49.712Z</time>
      </trkpt>
      <trkpt lat="44.33579" lon="0.65404">
        <ele>208.9</ele>
        <time>2025-08-06T07:05:21.712Z</time>
      </trkpt>
      <trkpt lat="44.33599" lon="0.6537">
        <ele>210.4</ele>
        <time>2025-08-06T07:05:49.712Z</time>
      </trkpt>
      <trkpt lat="44.33604" lon="0.65354">
        <ele>210.7</ele>
        <time>2025-08-06T07:06:09.712Z</time>
      </trkpt>
      <trkpt lat="44.33605" lon="0.65349">
        <ele>210.6</ele>
        <time>2025-08-06T07:06:41.712Z</time>
      </trkpt>
      <trkpt lat="44.3361" lon="0.65342">
        <ele>211.1</ele>
        <time>2025-08-06T07:07:13.712Z</time>
      </trkpt>
      <trkpt lat="44.3362" lon="0.65322">
        <ele>210.6</ele>
        <time>2025-08-06T07:07:45.712Z</time>
      </trkpt>
      <trkpt lat="44.33626" lon="0.65308">
        <ele>210.2</ele>
        <time>2025-08-06T07:08:49.712Z</time>
      </trkpt>
      <trkpt lat="44.33634" lon="0.65285">
        <ele>209.2</ele>
        <time>2025-08-06T07:09:41.712Z</time>
      </trkpt>
      <trkpt lat="44.33635" lon="0.65278">
        <ele>208.7</ele>
        <time>2025-08-06T07:09:45.712Z</time>
      </trkpt>
      <trkpt lat="44.3364" lon="0.65267">
        <ele>208.3</ele>
        <time>2025-08-06T07:09:53.712Z</time>
      </trkpt>
      <trkpt lat="44.33657" lon="0.65242">
        <ele>208</ele>
        <time>2025-08-06T07:10:13.712Z</time>
      </trkpt>
      <trkpt lat="44.33666" lon="0.65215">
        <ele>207.7</ele>
        <time>2025-08-06T07:10:29.712Z</time>
      </trkpt>
      <trkpt lat="44.3367" lon="0.6519">
        <ele>207.1</ele>
        <time>2025-08-06T07:10:45.712Z</time>
      </trkpt>
      <trkpt lat="44.33676" lon="0.65164">
        <ele>206.2</ele>
        <time>2025-08-06T07:11:01.712Z</time>
      </trkpt>
      <trkpt lat="44.33681" lon="0.65152">
        <ele>206</ele>
        <time>2025-08-06T07:11:09.712Z</time>
      </trkpt>
      <trkpt lat="44.33703" lon="0.65109">
        <ele>204.2</ele>
        <time>2025-08-06T07:11:41.712Z</time>
      </trkpt>
      <trkpt lat="44.33731" lon="0.65044">
        <ele>203.6</ele>
        <time>2025-08-06T07:12:29.712Z</time>
      </trkpt>
      <trkpt lat="44.33746" lon="0.65027">
        <ele>204.7</ele>
        <time>2025-08-06T07:12:45.712Z</time>
      </trkpt>
      <trkpt lat="44.33751" lon="0.65024">
        <ele>205.1</ele>
        <time>2025-08-06T07:13:01.712Z</time>
      </trkpt>
      <trkpt lat="44.33771" lon="0.64991">
        <ele>207.2</ele>
        <time>2025-08-06T07:13:41.712Z</time>
      </trkpt>
      <trkpt lat="44.33777" lon="0.64975">
        <ele>207.9</ele>
        <time>2025-08-06T07:13:53.712Z</time>
      </trkpt>
      <trkpt lat="44.3378" lon="0.64968">
        <ele>207.8</ele>
        <time>2025-08-06T07:14:01.712Z</time>
      </trkpt>
      <trkpt lat="44.33792" lon="0.64944">
        <ele>206.9</ele>
        <time>2025-08-06T07:14:17.712Z</time>
      </trkpt>
      <trkpt lat="44.33814" lon="0.64864">
        <ele>203.8</ele>
        <time>2025-08-06T07:15:05.712Z</time>
      </trkpt>
      <trkpt lat="44.33817" lon="0.64849">
        <ele>203.1</ele>
        <time>2025-08-06T07:15:13.712Z</time>
      </trkpt>
      <trkpt lat="44.33882" lon="0.64738">
        <ele>201</ele>
        <time>2025-08-06T07:16:33.712Z</time>
      </trkpt>
      <trkpt lat="44.339" lon="0.64702">
        <ele>200.7</ele>
        <time>2025-08-06T07:17:05.712Z</time>
      </trkpt>
      <trkpt lat="44.33906" lon="0.64694">
        <ele>200.4</ele>
        <time>2025-08-06T07:17:13.712Z</time>
      </trkpt>
      <trkpt lat="44.3391" lon="0.64693">
        <ele>200.2</ele>
        <time>2025-08-06T07:17:25.712Z</time>
      </trkpt>
      <trkpt lat="44.33923" lon="0.64682">
        <ele>199.3</ele>
        <time>2025-08-06T07:17:45.712Z</time>
      </trkpt>
      <trkpt lat="44.33928" lon="0.64673">
        <ele>199</ele>
        <time>2025-08-06T07:17:53.712Z</time>
      </trkpt>
      <trkpt lat="44.33929" lon="0.64663">
        <ele>198.9</ele>
        <time>2025-08-06T07:17:59.712Z</time>
      </trkpt>
      <trkpt lat="44.3394" lon="0.64659">
        <ele>199.9</ele>
        <time>2025-08-06T07:18:07.712Z</time>
      </trkpt>
      <trkpt lat="44.33958" lon="0.64663">
        <ele>200</ele>
        <time>2025-08-06T07:18:23.712Z</time>
      </trkpt>
      <trkpt lat="44.33968" lon="0.64666">
        <ele>200</ele>
        <time>2025-08-06T07:18:31.712Z</time>
      </trkpt>
      <trkpt lat="44.33978" lon="0.64663">
        <ele>199.4</ele>
        <time>2025-08-06T07:18:39.712Z</time>
      </trkpt>
      <trkpt lat="44.33987" lon="0.64662">
        <ele>198.7</ele>
        <time>2025-08-06T07:18:47.712Z</time>
      </trkpt>
      <trkpt lat="44.34004" lon="0.64666">
        <ele>198.1</ele>
        <time>2025-08-06T07:19:03.712Z</time>
      </trkpt>
      <trkpt lat="44.34023" lon="0.64666">
        <ele>198.8</ele>
        <time>2025-08-06T07:19:19.712Z</time>
      </trkpt>
      <trkpt lat="44.34041" lon="0.64668">
        <ele>199</ele>
        <time>2025-08-06T07:19:35.712Z</time>
      </trkpt>
      <trkpt lat="44.341" lon="0.64686">
        <ele>198</ele>
        <time>2025-08-06T07:20:31.712Z</time>
      </trkpt>
      <trkpt lat="44.34137" lon="0.64693">
        <ele>198</ele>
        <time>2025-08-06T07:21:03.712Z</time>
      </trkpt>
      <trkpt lat="44.34173" lon="0.64705">
        <ele>198.1</ele>
        <time>2025-08-06T07:21:35.712Z</time>
      </trkpt>
      <trkpt lat="44.34181" lon="0.64705">
        <ele>198.2</ele>
        <time>2025-08-06T07:21:43.712Z</time>
      </trkpt>
      <trkpt lat="44.342" lon="0.64696">
        <ele>198.4</ele>
        <time>2025-08-06T07:21:59.712Z</time>
      </trkpt>
      <trkpt lat="44.34209" lon="0.64692">
        <ele>199.1</ele>
        <time>2025-08-06T07:22:07.712Z</time>
      </trkpt>
      <trkpt lat="44.34217" lon="0.64686">
        <ele>199.6</ele>
        <time>2025-08-06T07:22:15.712Z</time>
      </trkpt>
      <trkpt lat="44.34231" lon="0.6468">
        <ele>200.1</ele>
        <time>2025-08-06T07:22:27.712Z</time>
      </trkpt>
      <trkpt lat="44.34239" lon="0.64673">
        <ele>200.1</ele>
        <time>2025-08-06T07:22:35.712Z</time>
      </trkpt>
      <trkpt lat="44.34256" lon="0.64666">
        <ele>200</ele>
        <time>2025-08-06T07:22:51.712Z</time>
      </trkpt>
      <trkpt lat="44.34274" lon="0.64655">
        <ele>199.2</ele>
        <time>2025-08-06T07:23:07.712Z</time>
      </trkpt>
      <trkpt lat="44.34288" lon="0.64643">
        <ele>198.6</ele>
        <time>2025-08-06T07:23:23.712Z</time>
      </trkpt>
      <trkpt lat="44.34303" lon="0.64632">
        <ele>198.9</ele>
        <time>2025-08-06T07:23:39.712Z</time>
      </trkpt>
      <trkpt lat="44.34321" lon="0.64623">
        <ele>200.6</ele>
        <time>2025-08-06T07:23:55.712Z</time>
      </trkpt>
      <trkpt lat="44.34328" lon="0.64614">
        <ele>201.4</ele>
        <time>2025-08-06T07:24:03.712Z</time>
      </trkpt>
      <trkpt lat="44.34341" lon="0.64606">
        <ele>202</ele>
        <time>2025-08-06T07:24:15.712Z</time>
      </trkpt>
      <trkpt lat="44.34346" lon="0.64605">
        <ele>202</ele>
        <time>2025-08-06T07:24:19.712Z</time>
      </trkpt>
      <trkpt lat="44.34361" lon="0.646">
        <ele>202</ele>
        <time>2025-08-06T07:24:41.712Z</time>
      </trkpt>
      <trkpt lat="44.34365" lon="0.64599">
        <ele>202</ele>
        <time>2025-08-06T07:24:45.712Z</time>
      </trkpt>
      <trkpt lat="44.34377" lon="0.64599">
        <ele>202</ele>
        <time>2025-08-06T07:24:57.712Z</time>
      </trkpt>
      <trkpt lat="44.34381" lon="0.64597">
        <ele>202</ele>
        <time>2025-08-06T07:25:01.712Z</time>
      </trkpt>
      <trkpt lat="44.34396" lon="0.64596">
        <ele>201.8</ele>
        <time>2025-08-06T07:25:13.712Z</time>
      </trkpt>
      <trkpt lat="44.34401" lon="0.64594">
        <ele>201.6</ele>
        <time>2025-08-06T07:25:17.712Z</time>
      </trkpt>
      <trkpt lat="44.34407" lon="0.6459">
        <ele>201.4</ele>
        <time>2025-08-06T07:25:25.712Z</time>
      </trkpt>
      <trkpt lat="44.34419" lon="0.64583">
        <ele>201</ele>
        <time>2025-08-06T07:25:33.712Z</time>
      </trkpt>
      <trkpt lat="44.34428" lon="0.64579">
        <ele>201.1</ele>
        <time>2025-08-06T07:25:41.712Z</time>
      </trkpt>
      <trkpt lat="44.34438" lon="0.64574">
        <ele>201.1</ele>
        <time>2025-08-06T07:25:53.712Z</time>
      </trkpt>
      <trkpt lat="44.34448" lon="0.64572">
        <ele>200.9</ele>
        <time>2025-08-06T07:26:01.712Z</time>
      </trkpt>
      <trkpt lat="44.34456" lon="0.64569">
        <ele>200.6</ele>
        <time>2025-08-06T07:26:09.712Z</time>
      </trkpt>
      <trkpt lat="44.34461" lon="0.6457">
        <ele>200.4</ele>
        <time>2025-08-06T07:26:13.712Z</time>
      </trkpt>
      <trkpt lat="44.34466" lon="0.64569">
        <ele>200.2</ele>
        <time>2025-08-06T07:26:17.712Z</time>
      </trkpt>
      <trkpt lat="44.34476" lon="0.64564">
        <ele>200</ele>
        <time>2025-08-06T07:26:25.712Z</time>
      </trkpt>
      <trkpt lat="44.34497" lon="0.64559">
        <ele>199.9</ele>
        <time>2025-08-06T07:26:41.712Z</time>
      </trkpt>
      <trkpt lat="44.34513" lon="0.64553">
        <ele>199.6</ele>
        <time>2025-08-06T07:26:57.712Z</time>
      </trkpt>
      <trkpt lat="44.34525" lon="0.64553">
        <ele>199.2</ele>
        <time>2025-08-06T07:27:09.712Z</time>
      </trkpt>
      <trkpt lat="44.34564" lon="0.64538">
        <ele>199.4</ele>
        <time>2025-08-06T07:27:45.712Z</time>
      </trkpt>
      <trkpt lat="44.34576" lon="0.64541">
        <ele>199.1</ele>
        <time>2025-08-06T07:27:53.712Z</time>
      </trkpt>
      <trkpt lat="44.34582" lon="0.64545">
        <ele>199</ele>
        <time>2025-08-06T07:28:01.712Z</time>
      </trkpt>
      <trkpt lat="44.34586" lon="0.64552">
        <ele>199.1</ele>
        <time>2025-08-06T07:28:05.712Z</time>
      </trkpt>
      <trkpt lat="44.34596" lon="0.64559">
        <ele>199.6</ele>
        <time>2025-08-06T07:28:13.712Z</time>
      </trkpt>
      <trkpt lat="44.346" lon="0.64559">
        <ele>199.7</ele>
        <time>2025-08-06T07:28:17.712Z</time>
      </trkpt>
      <trkpt lat="44.34614" lon="0.6455">
        <ele>199.9</ele>
        <time>2025-08-06T07:28:33.712Z</time>
      </trkpt>
      <trkpt lat="44.3463" lon="0.64546">
        <ele>200.3</ele>
        <time>2025-08-06T07:28:45.712Z</time>
      </trkpt>
      <trkpt lat="44.34635" lon="0.64542">
        <ele>200.4</ele>
        <time>2025-08-06T07:28:49.712Z</time>
      </trkpt>
      <trkpt lat="44.34663" lon="0.64536">
        <ele>200.3</ele>
        <time>2025-08-06T07:29:13.712Z</time>
      </trkpt>
      <trkpt lat="44.34675" lon="0.6452">
        <ele>199.8</ele>
        <time>2025-08-06T07:29:29.712Z</time>
      </trkpt>
      <trkpt lat="44.34681" lon="0.64518">
        <ele>199.8</ele>
        <time>2025-08-06T07:29:37.712Z</time>
      </trkpt>
      <trkpt lat="44.34683" lon="0.64514">
        <ele>199.8</ele>
        <time>2025-08-06T07:29:41.712Z</time>
      </trkpt>
      <trkpt lat="44.34692" lon="0.64506">
        <ele>199.9</ele>
        <time>2025-08-06T07:29:57.712Z</time>
      </trkpt>
      <trkpt lat="44.34702" lon="0.64502">
        <ele>199.7</ele>
        <time>2025-08-06T07:30:13.712Z</time>
      </trkpt>
      <trkpt lat="44.34708" lon="0.64508">
        <ele>199.5</ele>
        <time>2025-08-06T07:32:41.712Z</time>
      </trkpt>
      <trkpt lat="44.34715" lon="0.64506">
        <ele>199.2</ele>
        <time>2025-08-06T07:34:09.712Z</time>
      </trkpt>
      <trkpt lat="44.34722" lon="0.64511">
        <ele>199</ele>
        <time>2025-08-06T07:34:17.712Z</time>
      </trkpt>
      <trkpt lat="44.34729" lon="0.64514">
        <ele>198.8</ele>
        <time>2025-08-06T07:34:25.712Z</time>
      </trkpt>
      <trkpt lat="44.34742" lon="0.64524">
        <ele>198.3</ele>
        <time>2025-08-06T07:34:41.712Z</time>
      </trkpt>
      <trkpt lat="44.34751" lon="0.64529">
        <ele>197.9</ele>
        <time>2025-08-06T07:34:49.712Z</time>
      </trkpt>
      <trkpt lat="44.34756" lon="0.64529">
        <ele>197.6</ele>
        <time>2025-08-06T07:34:53.712Z</time>
      </trkpt>
      <trkpt lat="44.34764" lon="0.64534">
        <ele>197</ele>
        <time>2025-08-06T07:35:01.712Z</time>
      </trkpt>
      <trkpt lat="44.34768" lon="0.64534">
        <ele>196.7</ele>
        <time>2025-08-06T07:35:09.712Z</time>
      </trkpt>
      <trkpt lat="44.34776" lon="0.6452">
        <ele>196.1</ele>
        <time>2025-08-06T07:35:25.712Z</time>
      </trkpt>
      <trkpt lat="44.3478" lon="0.64516">
        <ele>195.8</ele>
        <time>2025-08-06T07:35:29.712Z</time>
      </trkpt>
      <trkpt lat="44.34787" lon="0.64511">
        <ele>195.3</ele>
        <time>2025-08-06T07:35:35.712Z</time>
      </trkpt>
      <trkpt lat="44.34794" lon="0.64507">
        <ele>194.9</ele>
        <time>2025-08-06T07:35:45.712Z</time>
      </trkpt>
      <trkpt lat="44.34797" lon="0.64503">
        <ele>194.6</ele>
        <time>2025-08-06T07:35:49.712Z</time>
      </trkpt>
      <trkpt lat="44.34816" lon="0.64497">
        <ele>193.7</ele>
        <time>2025-08-06T07:36:13.712Z</time>
      </trkpt>
      <trkpt lat="44.34821" lon="0.64497">
        <ele>193.5</ele>
        <time>2025-08-06T07:36:17.712Z</time>
      </trkpt>
      <trkpt lat="44.34826" lon="0.64494">
        <ele>193.3</ele>
        <time>2025-08-06T07:36:21.712Z</time>
      </trkpt>
      <trkpt lat="44.34832" lon="0.64492">
        <ele>193.1</ele>
        <time>2025-08-06T07:36:25.712Z</time>
      </trkpt>
      <trkpt lat="44.34852" lon="0.64498">
        <ele>193.6</ele>
        <time>2025-08-06T07:36:41.712Z</time>
      </trkpt>
      <trkpt lat="44.34885" lon="0.64514">
        <ele>194.1</ele>
        <time>2025-08-06T07:37:13.712Z</time>
      </trkpt>
      <trkpt lat="44.34894" lon="0.64516">
        <ele>194.3</ele>
        <time>2025-08-06T07:37:21.712Z</time>
      </trkpt>
      <trkpt lat="44.34914" lon="0.64514">
        <ele>195.4</ele>
        <time>2025-08-06T07:37:37.712Z</time>
      </trkpt>
      <trkpt lat="44.34933" lon="0.64517">
        <ele>196.5</ele>
        <time>2025-08-06T07:37:53.712Z</time>
      </trkpt>
      <trkpt lat="44.34937" lon="0.64519">
        <ele>196.7</ele>
        <time>2025-08-06T07:37:57.712Z</time>
      </trkpt>
      <trkpt lat="44.34942" lon="0.64519">
        <ele>197.1</ele>
        <time>2025-08-06T07:38:01.712Z</time>
      </trkpt>
      <trkpt lat="44.34951" lon="0.64523">
        <ele>197.6</ele>
        <time>2025-08-06T07:38:09.712Z</time>
      </trkpt>
      <trkpt lat="44.34953" lon="0.64525">
        <ele>197.7</ele>
        <time>2025-08-06T07:38:13.712Z</time>
      </trkpt>
      <trkpt lat="44.34958" lon="0.64524">
        <ele>198</ele>
        <time>2025-08-06T07:38:21.712Z</time>
      </trkpt>
      <trkpt lat="44.34962" lon="0.64525">
        <ele>198.3</ele>
        <time>2025-08-06T07:38:25.712Z</time>
      </trkpt>
      <trkpt lat="44.34976" lon="0.64529">
        <ele>199.3</ele>
        <time>2025-08-06T07:39:17.712Z</time>
      </trkpt>
      <trkpt lat="44.34989" lon="0.64528">
        <ele>200.2</ele>
        <time>2025-08-06T07:39:45.712Z</time>
      </trkpt>
      <trkpt lat="44.34994" lon="0.64527">
        <ele>200.5</ele>
        <time>2025-08-06T07:39:49.712Z</time>
      </trkpt>
      <trkpt lat="44.35014" lon="0.64533">
        <ele>201</ele>
        <time>2025-08-06T07:40:05.712Z</time>
      </trkpt>
      <trkpt lat="44.35032" lon="0.64544">
        <ele>200.7</ele>
        <time>2025-08-06T07:40:21.712Z</time>
      </trkpt>
      <trkpt lat="44.35036" lon="0.64548">
        <ele>200.3</ele>
        <time>2025-08-06T07:40:25.712Z</time>
      </trkpt>
      <trkpt lat="44.35047" lon="0.64556">
        <ele>199.7</ele>
        <time>2025-08-06T07:40:45.712Z</time>
      </trkpt>
      <trkpt lat="44.35079" lon="0.64579">
        <ele>199</ele>
        <time>2025-08-06T07:41:17.712Z</time>
      </trkpt>
      <trkpt lat="44.35085" lon="0.64586">
        <ele>199.1</ele>
        <time>2025-08-06T07:41:25.712Z</time>
      </trkpt>
      <trkpt lat="44.35119" lon="0.64607">
        <ele>200.1</ele>
        <time>2025-08-06T07:41:57.712Z</time>
      </trkpt>
      <trkpt lat="44.3513" lon="0.64618">
        <ele>200.9</ele>
        <time>2025-08-06T07:42:09.712Z</time>
      </trkpt>
      <trkpt lat="44.35133" lon="0.6462">
        <ele>201.1</ele>
        <time>2025-08-06T07:42:17.712Z</time>
      </trkpt>
      <trkpt lat="44.3514" lon="0.64625">
        <ele>201.6</ele>
        <time>2025-08-06T07:42:25.712Z</time>
      </trkpt>
      <trkpt lat="44.35144" lon="0.64629">
        <ele>202.1</ele>
        <time>2025-08-06T07:43:53.712Z</time>
      </trkpt>
      <trkpt lat="44.35155" lon="0.64634">
        <ele>203.4</ele>
        <time>2025-08-06T07:44:01.712Z</time>
      </trkpt>
      <trkpt lat="44.35177" lon="0.64653">
        <ele>205.9</ele>
        <time>2025-08-06T07:44:33.712Z</time>
      </trkpt>
      <trkpt lat="44.35188" lon="0.64654">
        <ele>206.3</ele>
        <time>2025-08-06T07:44:47.712Z</time>
      </trkpt>
      <trkpt lat="44.35191" lon="0.64661">
        <ele>206.6</ele>
        <time>2025-08-06T07:44:51.712Z</time>
      </trkpt>
      <trkpt lat="44.35189" lon="0.64668">
        <ele>206.9</ele>
        <time>2025-08-06T07:44:55.712Z</time>
      </trkpt>
      <trkpt lat="44.35185" lon="0.64674">
        <ele>206.9</ele>
        <time>2025-08-06T07:44:59.712Z</time>
      </trkpt>
      <trkpt lat="44.3518" lon="0.64687">
        <ele>207.2</ele>
        <time>2025-08-06T07:45:07.712Z</time>
      </trkpt>
      <trkpt lat="44.35169" lon="0.64699">
        <ele>207.2</ele>
        <time>2025-08-06T07:45:19.712Z</time>
      </trkpt>
      <trkpt lat="44.3516" lon="0.6472">
        <ele>207.7</ele>
        <time>2025-08-06T07:45:35.712Z</time>
      </trkpt>
      <trkpt lat="44.35157" lon="0.64738">
        <ele>208</ele>
        <time>2025-08-06T07:45:47.712Z</time>
      </trkpt>
      <trkpt lat="44.35158" lon="0.64743">
        <ele>208.1</ele>
        <time>2025-08-06T07:45:51.712Z</time>
      </trkpt>
      <trkpt lat="44.35162" lon="0.64763">
        <ele>207.8</ele>
        <time>2025-08-06T07:46:17.712Z</time>
      </trkpt>
      <trkpt lat="44.35162" lon="0.64786">
        <ele>207.1</ele>
        <time>2025-08-06T07:46:41.712Z</time>
      </trkpt>
      <trkpt lat="44.35149" lon="0.64807">
        <ele>207.2</ele>
        <time>2025-08-06T07:46:57.712Z</time>
      </trkpt>
      <trkpt lat="44.35141" lon="0.64815">
        <ele>207.2</ele>
        <time>2025-08-06T07:47:05.712Z</time>
      </trkpt>
      <trkpt lat="44.35125" lon="0.64835">
        <ele>206.4</ele>
        <time>2025-08-06T07:47:45.712Z</time>
      </trkpt>
      <trkpt lat="44.35105" lon="0.64865">
        <ele>204.9</ele>
        <time>2025-08-06T07:48:09.712Z</time>
      </trkpt>
      <trkpt lat="44.35089" lon="0.649">
        <ele>204.9</ele>
        <time>2025-08-06T07:48:33.712Z</time>
      </trkpt>
      <trkpt lat="44.35082" lon="0.6491">
        <ele>205.3</ele>
        <time>2025-08-06T07:48:41.712Z</time>
      </trkpt>
      <trkpt lat="44.35077" lon="0.64923">
        <ele>205.4</ele>
        <time>2025-08-06T07:48:49.712Z</time>
      </trkpt>
      <trkpt lat="44.35071" lon="0.64935">
        <ele>205.9</ele>
        <time>2025-08-06T07:48:57.712Z</time>
      </trkpt>
      <trkpt lat="44.35049" lon="0.64992">
        <ele>205.3</ele>
        <time>2025-08-06T07:50:09.712Z</time>
      </trkpt>
      <trkpt lat="44.35047" lon="0.65013">
        <ele>204.2</ele>
        <time>2025-08-06T07:50:25.712Z</time>
      </trkpt>
      <trkpt lat="44.35034" lon="0.6506">
        <ele>201.8</ele>
        <time>2025-08-06T07:50:57.712Z</time>
      </trkpt>
      <trkpt lat="44.35033" lon="0.65071">
        <ele>201.4</ele>
        <time>2025-08-06T07:51:05.712Z</time>
      </trkpt>
      <trkpt lat="44.35031" lon="0.65084">
        <ele>201</ele>
        <time>2025-08-06T07:51:13.712Z</time>
      </trkpt>
      <trkpt lat="44.35034" lon="0.65125">
        <ele>200.9</ele>
        <time>2025-08-06T07:51:37.712Z</time>
      </trkpt>
      <trkpt lat="44.35032" lon="0.65131">
        <ele>200.9</ele>
        <time>2025-08-06T07:51:41.712Z</time>
      </trkpt>
      <trkpt lat="44.35031" lon="0.65146">
        <ele>200.6</ele>
        <time>2025-08-06T07:51:49.712Z</time>
      </trkpt>
      <trkpt lat="44.35026" lon="0.65176">
        <ele>199.9</ele>
        <time>2025-08-06T07:54:01.712Z</time>
      </trkpt>
      <trkpt lat="44.35025" lon="0.6519">
        <ele>199.9</ele>
        <time>2025-08-06T07:54:53.712Z</time>
      </trkpt>
      <trkpt lat="44.35023" lon="0.652">
        <ele>199.7</ele>
        <time>2025-08-06T07:55:01.712Z</time>
      </trkpt>
      <trkpt lat="44.35023" lon="0.6521">
        <ele>199.3</ele>
        <time>2025-08-06T07:55:09.712Z</time>
      </trkpt>
      <trkpt lat="44.3502" lon="0.6523">
        <ele>198.5</ele>
        <time>2025-08-06T07:55:25.712Z</time>
      </trkpt>
      <trkpt lat="44.35017" lon="0.65255">
        <ele>197.7</ele>
        <time>2025-08-06T07:55:41.712Z</time>
      </trkpt>
      <trkpt lat="44.35016" lon="0.65306">
        <ele>195.5</ele>
        <time>2025-08-06T07:56:13.712Z</time>
      </trkpt>
      <trkpt lat="44.35017" lon="0.65331">
        <ele>194.3</ele>
        <time>2025-08-06T07:56:29.712Z</time>
      </trkpt>
      <trkpt lat="44.35014" lon="0.65376">
        <ele>191.9</ele>
        <time>2025-08-06T07:57:01.712Z</time>
      </trkpt>
      <trkpt lat="44.35015" lon="0.65387">
        <ele>191.2</ele>
        <time>2025-08-06T07:57:13.712Z</time>
      </trkpt>
      <trkpt lat="44.3503" lon="0.65367">
        <ele>193.7</ele>
        <time>2025-08-06T07:57:37.712Z</time>
      </trkpt>
      <trkpt lat="44.35037" lon="0.65362">
        <ele>194.2</ele>
        <time>2025-08-06T07:57:45.712Z</time>
      </trkpt>
      <trkpt lat="44.35041" lon="0.65362">
        <ele>194.4</ele>
        <time>2025-08-06T07:58:17.712Z</time>
      </trkpt>
      <trkpt lat="44.35052" lon="0.65352">
        <ele>195.2</ele>
        <time>2025-08-06T07:58:41.712Z</time>
      </trkpt>
      <trkpt lat="44.35065" lon="0.65349">
        <ele>195.6</ele>
        <time>2025-08-06T07:59:01.712Z</time>
      </trkpt>
      <trkpt lat="44.35073" lon="0.65344">
        <ele>195.9</ele>
        <time>2025-08-06T07:59:09.712Z</time>
      </trkpt>
      <trkpt lat="44.35123" lon="0.65324">
        <ele>196</ele>
        <time>2025-08-06T07:59:57.712Z</time>
      </trkpt>
      <trkpt lat="44.3514" lon="0.65314">
        <ele>196</ele>
        <time>2025-08-06T08:00:13.712Z</time>
      </trkpt>
      <trkpt lat="44.35165" lon="0.65294">
        <ele>195.1</ele>
        <time>2025-08-06T08:00:37.712Z</time>
      </trkpt>
      <trkpt lat="44.35168" lon="0.65289">
        <ele>194.9</ele>
        <time>2025-08-06T08:00:41.712Z</time>
      </trkpt>
      <trkpt lat="44.35189" lon="0.65274">
        <ele>193.5</ele>
        <time>2025-08-06T08:01:01.712Z</time>
      </trkpt>
      <trkpt lat="44.35198" lon="0.65271">
        <ele>193.1</ele>
        <time>2025-08-06T08:01:09.712Z</time>
      </trkpt>
      <trkpt lat="44.35238" lon="0.65264">
        <ele>191.4</ele>
        <time>2025-08-06T08:01:41.712Z</time>
      </trkpt>
      <trkpt lat="44.35316" lon="0.65246">
        <ele>188.1</ele>
        <time>2025-08-06T08:02:45.712Z</time>
      </trkpt>
      <trkpt lat="44.35341" lon="0.65243">
        <ele>186.2</ele>
        <time>2025-08-06T08:03:05.712Z</time>
      </trkpt>
      <trkpt lat="44.35357" lon="0.65245">
        <ele>185.1</ele>
        <time>2025-08-06T08:03:21.712Z</time>
      </trkpt>
      <trkpt lat="44.35373" lon="0.65252">
        <ele>183.6</ele>
        <time>2025-08-06T08:03:37.712Z</time>
      </trkpt>
      <trkpt lat="44.35383" lon="0.65252">
        <ele>182.6</ele>
        <time>2025-08-06T08:03:45.712Z</time>
      </trkpt>
      <trkpt lat="44.35399" lon="0.65242">
        <ele>181.4</ele>
        <time>2025-08-06T08:04:01.712Z</time>
      </trkpt>
      <trkpt lat="44.35414" lon="0.65231">
        <ele>181.2</ele>
        <time>2025-08-06T08:04:17.712Z</time>
      </trkpt>
      <trkpt lat="44.35421" lon="0.65232">
        <ele>181.3</ele>
        <time>2025-08-06T08:04:33.712Z</time>
      </trkpt>
      <trkpt lat="44.35425" lon="0.6523">
        <ele>181.8</ele>
        <time>2025-08-06T08:04:37.712Z</time>
      </trkpt>
      <trkpt lat="44.3543" lon="0.65229">
        <ele>182.2</ele>
        <time>2025-08-06T08:04:41.712Z</time>
      </trkpt>
      <trkpt lat="44.35439" lon="0.65232">
        <ele>182.6</ele>
        <time>2025-08-06T08:04:49.712Z</time>
      </trkpt>
      <trkpt lat="44.35448" lon="0.65231">
        <ele>183.5</ele>
        <time>2025-08-06T08:04:57.712Z</time>
      </trkpt>
      <trkpt lat="44.35456" lon="0.65233">
        <ele>184.3</ele>
        <time>2025-08-06T08:05:05.712Z</time>
      </trkpt>
      <trkpt lat="44.35468" lon="0.65232">
        <ele>185.8</ele>
        <time>2025-08-06T08:05:17.712Z</time>
      </trkpt>
      <trkpt lat="44.35477" lon="0.65233">
        <ele>186.8</ele>
        <time>2025-08-06T08:05:25.712Z</time>
      </trkpt>
      <trkpt lat="44.35486" lon="0.65236">
        <ele>187.8</ele>
        <time>2025-08-06T08:05:33.712Z</time>
      </trkpt>
      <trkpt lat="44.35494" lon="0.65245">
        <ele>188.3</ele>
        <time>2025-08-06T08:05:41.712Z</time>
      </trkpt>
      <trkpt lat="44.35497" lon="0.65253">
        <ele>188.4</ele>
        <time>2025-08-06T08:05:49.712Z</time>
      </trkpt>
      <trkpt lat="44.35515" lon="0.6528">
        <ele>189</ele>
        <time>2025-08-06T08:06:13.712Z</time>
      </trkpt>
      <trkpt lat="44.35522" lon="0.65285">
        <ele>189.2</ele>
        <time>2025-08-06T08:06:21.712Z</time>
      </trkpt>
      <trkpt lat="44.35539" lon="0.65281">
        <ele>190.7</ele>
        <time>2025-08-06T08:06:37.712Z</time>
      </trkpt>
      <trkpt lat="44.35543" lon="0.65279">
        <ele>191</ele>
        <time>2025-08-06T08:06:41.712Z</time>
      </trkpt>
      <trkpt lat="44.35549" lon="0.65263">
        <ele>192.2</ele>
        <time>2025-08-06T08:06:53.712Z</time>
      </trkpt>
      <trkpt lat="44.35552" lon="0.6525">
        <ele>192.9</ele>
        <time>2025-08-06T08:07:01.712Z</time>
      </trkpt>
      <trkpt lat="44.35558" lon="0.65199">
        <ele>194.9</ele>
        <time>2025-08-06T08:07:33.712Z</time>
      </trkpt>
      <trkpt lat="44.3556" lon="0.65187">
        <ele>195.4</ele>
        <time>2025-08-06T08:07:41.712Z</time>
      </trkpt>
      <trkpt lat="44.35564" lon="0.65177">
        <ele>196</ele>
        <time>2025-08-06T08:08:05.712Z</time>
      </trkpt>
      <trkpt lat="44.35569" lon="0.65177">
        <ele>196.1</ele>
        <time>2025-08-06T08:08:21.712Z</time>
      </trkpt>
      <trkpt lat="44.35586" lon="0.65172">
        <ele>196.7</ele>
        <time>2025-08-06T08:10:37.712Z</time>
      </trkpt>
      <trkpt lat="44.35601" lon="0.65175">
        <ele>196.1</ele>
        <time>2025-08-06T08:10:53.712Z</time>
      </trkpt>
      <trkpt lat="44.35637" lon="0.65163">
        <ele>194.5</ele>
        <time>2025-08-06T08:11:25.712Z</time>
      </trkpt>
      <trkpt lat="44.35658" lon="0.65158">
        <ele>193.3</ele>
        <time>2025-08-06T08:12:29.712Z</time>
      </trkpt>
      <trkpt lat="44.35664" lon="0.65153">
        <ele>193.2</ele>
        <time>2025-08-06T08:12:45.712Z</time>
      </trkpt>
      <trkpt lat="44.35672" lon="0.65148">
        <ele>192.8</ele>
        <time>2025-08-06T08:13:01.712Z</time>
      </trkpt>
      <trkpt lat="44.35701" lon="0.65124">
        <ele>192.3</ele>
        <time>2025-08-06T08:13:33.712Z</time>
      </trkpt>
      <trkpt lat="44.3571" lon="0.65119">
        <ele>192.2</ele>
        <time>2025-08-06T08:13:41.712Z</time>
      </trkpt>
      <trkpt lat="44.35729" lon="0.6512">
        <ele>191.1</ele>
        <time>2025-08-06T08:13:57.712Z</time>
      </trkpt>
      <trkpt lat="44.35757" lon="0.65126">
        <ele>190.1</ele>
        <time>2025-08-06T08:14:21.712Z</time>
      </trkpt>
      <trkpt lat="44.35775" lon="0.65137">
        <ele>190</ele>
        <time>2025-08-06T08:14:37.712Z</time>
      </trkpt>
      <trkpt lat="44.35786" lon="0.65151">
        <ele>189.1</ele>
        <time>2025-08-06T08:14:53.712Z</time>
      </trkpt>
      <trkpt lat="44.35791" lon="0.65162">
        <ele>188.4</ele>
        <time>2025-08-06T08:15:01.712Z</time>
      </trkpt>
      <trkpt lat="44.35804" lon="0.65181">
        <ele>188.2</ele>
        <time>2025-08-06T08:15:17.712Z</time>
      </trkpt>
      <trkpt lat="44.35835" lon="0.65243">
        <ele>187.3</ele>
        <time>2025-08-06T08:16:05.712Z</time>
      </trkpt>
      <trkpt lat="44.35852" lon="0.65267">
        <ele>187.7</ele>
        <time>2025-08-06T08:16:25.712Z</time>
      </trkpt>
      <trkpt lat="44.35853" lon="0.65272">
        <ele>187.5</ele>
        <time>2025-08-06T08:16:29.712Z</time>
      </trkpt>
      <trkpt lat="44.35867" lon="0.65293">
        <ele>188</ele>
        <time>2025-08-06T08:16:45.712Z</time>
      </trkpt>
      <trkpt lat="44.35874" lon="0.6531">
        <ele>187.6</ele>
        <time>2025-08-06T08:17:01.712Z</time>
      </trkpt>
      <trkpt lat="44.35878" lon="0.65325">
        <ele>187.4</ele>
        <time>2025-08-06T08:17:53.712Z</time>
      </trkpt>
      <trkpt lat="44.35895" lon="0.6536">
        <ele>189.6</ele>
        <time>2025-08-06T08:18:57.712Z</time>
      </trkpt>
      <trkpt lat="44.35898" lon="0.65372">
        <ele>190</ele>
        <time>2025-08-06T08:19:05.712Z</time>
      </trkpt>
      <trkpt lat="44.359" lon="0.65384">
        <ele>190.2</ele>
        <time>2025-08-06T08:19:13.712Z</time>
      </trkpt>
      <trkpt lat="44.35915" lon="0.65433">
        <ele>191.9</ele>
        <time>2025-08-06T08:19:45.712Z</time>
      </trkpt>
      <trkpt lat="44.35916" lon="0.65445">
        <ele>192</ele>
        <time>2025-08-06T08:19:53.712Z</time>
      </trkpt>
      <trkpt lat="44.35928" lon="0.65479">
        <ele>193.7</ele>
        <time>2025-08-06T08:20:17.712Z</time>
      </trkpt>
      <trkpt lat="44.3593" lon="0.65494">
        <ele>194.2</ele>
        <time>2025-08-06T08:20:49.712Z</time>
      </trkpt>
      <trkpt lat="44.35933" lon="0.65501">
        <ele>194.6</ele>
        <time>2025-08-06T08:21:05.712Z</time>
      </trkpt>
      <trkpt lat="44.35935" lon="0.65514">
        <ele>194.7</ele>
        <time>2025-08-06T08:21:13.712Z</time>
      </trkpt>
      <trkpt lat="44.35943" lon="0.65535">
        <ele>194.9</ele>
        <time>2025-08-06T08:21:29.712Z</time>
      </trkpt>
      <trkpt lat="44.35944" lon="0.65543">
        <ele>195</ele>
        <time>2025-08-06T08:21:37.712Z</time>
      </trkpt>
      <trkpt lat="44.3595" lon="0.65561">
        <ele>194.8</ele>
        <time>2025-08-06T08:21:53.712Z</time>
      </trkpt>
      <trkpt lat="44.35983" lon="0.65637">
        <ele>190.5</ele>
        <time>2025-08-06T08:23:05.712Z</time>
      </trkpt>
      <trkpt lat="44.35985" lon="0.65647">
        <ele>189.3</ele>
        <time>2025-08-06T08:23:13.712Z</time>
      </trkpt>
      <trkpt lat="44.35985" lon="0.65656">
        <ele>187.9</ele>
        <time>2025-08-06T08:23:21.712Z</time>
      </trkpt>
      <trkpt lat="44.35994" lon="0.65695">
        <ele>184.1</ele>
        <time>2025-08-06T08:24:05.712Z</time>
      </trkpt>
      <trkpt lat="44.35992" lon="0.65726">
        <ele>181.6</ele>
        <time>2025-08-06T08:24:21.712Z</time>
      </trkpt>
      <trkpt lat="44.35989" lon="0.65751">
        <ele>181.5</ele>
        <time>2025-08-06T08:24:37.712Z</time>
      </trkpt>
      <trkpt lat="44.35977" lon="0.6577">
        <ele>181.8</ele>
        <time>2025-08-06T08:24:50.712Z</time>
      </trkpt>
      <trkpt lat="44.35972" lon="0.65781">
        <ele>182.4</ele>
        <time>2025-08-06T08:24:58.712Z</time>
      </trkpt>
      <trkpt lat="44.3597" lon="0.65804">
        <ele>185.3</ele>
        <time>2025-08-06T08:25:14.712Z</time>
      </trkpt>
      <trkpt lat="44.35967" lon="0.65823">
        <ele>186.8</ele>
        <time>2025-08-06T08:25:30.712Z</time>
      </trkpt>
      <trkpt lat="44.35967" lon="0.65845">
        <ele>188.6</ele>
        <time>2025-08-06T08:25:46.712Z</time>
      </trkpt>
      <trkpt lat="44.35963" lon="0.65873">
        <ele>189.3</ele>
        <time>2025-08-06T08:26:34.712Z</time>
      </trkpt>
      <trkpt lat="44.35951" lon="0.65904">
        <ele>189.3</ele>
        <time>2025-08-06T08:28:58.712Z</time>
      </trkpt>
      <trkpt lat="44.35941" lon="0.6595">
        <ele>189.8</ele>
        <time>2025-08-06T08:29:38.712Z</time>
      </trkpt>
      <trkpt lat="44.35932" lon="0.65962">
        <ele>189.7</ele>
        <time>2025-08-06T08:31:56.712Z</time>
      </trkpt>
      <trkpt lat="44.35924" lon="0.65967">
        <ele>189.7</ele>
        <time>2025-08-06T08:32:04.712Z</time>
      </trkpt>
      <trkpt lat="44.3591" lon="0.6598">
        <ele>189.2</ele>
        <time>2025-08-06T08:32:20.712Z</time>
      </trkpt>
      <trkpt lat="44.35905" lon="0.65985">
        <ele>188.7</ele>
        <time>2025-08-06T08:35:20.712Z</time>
      </trkpt>
      <trkpt lat="44.35895" lon="0.65998">
        <ele>188.5</ele>
        <time>2025-08-06T08:35:32.712Z</time>
      </trkpt>
      <trkpt lat="44.35894" lon="0.66002">
        <ele>188.6</ele>
        <time>2025-08-06T08:35:36.712Z</time>
      </trkpt>
      <trkpt lat="44.35889" lon="0.66007">
        <ele>188.5</ele>
        <time>2025-08-06T08:35:40.712Z</time>
      </trkpt>
      <trkpt lat="44.35873" lon="0.66043">
        <ele>189.1</ele>
        <time>2025-08-06T08:36:04.712Z</time>
      </trkpt>
      <trkpt lat="44.3587" lon="0.66056">
        <ele>189.6</ele>
        <time>2025-08-06T08:36:12.712Z</time>
      </trkpt>
      <trkpt lat="44.35865" lon="0.6607">
        <ele>188.3</ele>
        <time>2025-08-06T08:36:20.712Z</time>
      </trkpt>
      <trkpt lat="44.35862" lon="0.6609">
        <ele>186.4</ele>
        <time>2025-08-06T08:36:32.712Z</time>
      </trkpt>
      <trkpt lat="44.35877" lon="0.66125">
        <ele>185.7</ele>
        <time>2025-08-06T08:36:56.712Z</time>
      </trkpt>
      <trkpt lat="44.35884" lon="0.66136">
        <ele>186.5</ele>
        <time>2025-08-06T08:37:04.712Z</time>
      </trkpt>
      <trkpt lat="44.35888" lon="0.66148">
        <ele>186.7</ele>
        <time>2025-08-06T08:37:12.712Z</time>
      </trkpt>
      <trkpt lat="44.3589" lon="0.66163">
        <ele>185.5</ele>
        <time>2025-08-06T08:37:20.712Z</time>
      </trkpt>
      <trkpt lat="44.35895" lon="0.6618">
        <ele>184.2</ele>
        <time>2025-08-06T08:37:28.712Z</time>
      </trkpt>
      <trkpt lat="44.35896" lon="0.66205">
        <ele>181.1</ele>
        <time>2025-08-06T08:37:44.712Z</time>
      </trkpt>
      <trkpt lat="44.35902" lon="0.6623">
        <ele>179.1</ele>
        <time>2025-08-06T08:38:00.712Z</time>
      </trkpt>
      <trkpt lat="44.35909" lon="0.66246">
        <ele>179</ele>
        <time>2025-08-06T08:38:12.712Z</time>
      </trkpt>
      <trkpt lat="44.35928" lon="0.66257">
        <ele>182.4</ele>
        <time>2025-08-06T08:38:28.712Z</time>
      </trkpt>
      <trkpt lat="44.35938" lon="0.66271">
        <ele>183.2</ele>
        <time>2025-08-06T08:38:42.712Z</time>
      </trkpt>
      <trkpt lat="44.35941" lon="0.66277">
        <ele>183.2</ele>
        <time>2025-08-06T08:39:19.712Z</time>
      </trkpt>
      <trkpt lat="44.35941" lon="0.66286">
        <ele>182.9</ele>
        <time>2025-08-06T08:39:23.712Z</time>
      </trkpt>
      <trkpt lat="44.35944" lon="0.66301">
        <ele>183.1</ele>
        <time>2025-08-06T08:39:31.712Z</time>
      </trkpt>
      <trkpt lat="44.35944" lon="0.6632">
        <ele>183</ele>
        <time>2025-08-06T08:39:43.712Z</time>
      </trkpt>
      <trkpt lat="44.35947" lon="0.66329">
        <ele>183.3</ele>
        <time>2025-08-06T08:39:51.712Z</time>
      </trkpt>
      <trkpt lat="44.35947" lon="0.66335">
        <ele>183.3</ele>
        <time>2025-08-06T08:39:55.712Z</time>
      </trkpt>
      <trkpt lat="44.35945" lon="0.66341">
        <ele>183.1</ele>
        <time>2025-08-06T08:39:59.712Z</time>
      </trkpt>
      <trkpt lat="44.35937" lon="0.66352">
        <ele>182.2</ele>
        <time>2025-08-06T08:40:07.712Z</time>
      </trkpt>
      <trkpt lat="44.35891" lon="0.66382">
        <ele>180.9</ele>
        <time>2025-08-06T08:40:47.712Z</time>
      </trkpt>
      <trkpt lat="44.35884" lon="0.66389">
        <ele>181.1</ele>
        <time>2025-08-06T08:40:55.712Z</time>
      </trkpt>
      <trkpt lat="44.35879" lon="0.66397">
        <ele>181.5</ele>
        <time>2025-08-06T08:41:03.712Z</time>
      </trkpt>
      <trkpt lat="44.35866" lon="0.66431">
        <ele>184.9</ele>
        <time>2025-08-06T08:41:27.712Z</time>
      </trkpt>
      <trkpt lat="44.35857" lon="0.66441">
        <ele>185.2</ele>
        <time>2025-08-06T08:41:35.712Z</time>
      </trkpt>
      <trkpt lat="44.35823" lon="0.66467">
        <ele>185.5</ele>
        <time>2025-08-06T08:42:03.712Z</time>
      </trkpt>
      <trkpt lat="44.35818" lon="0.66468">
        <ele>185.3</ele>
        <time>2025-08-06T08:42:07.712Z</time>
      </trkpt>
      <trkpt lat="44.35807" lon="0.66475">
        <ele>185.3</ele>
        <time>2025-08-06T08:42:15.712Z</time>
      </trkpt>
      <trkpt lat="44.35789" lon="0.66482">
        <ele>183.6</ele>
        <time>2025-08-06T08:42:31.712Z</time>
      </trkpt>
      <trkpt lat="44.35759" lon="0.66528">
        <ele>185.2</ele>
        <time>2025-08-06T08:43:11.712Z</time>
      </trkpt>
      <trkpt lat="44.35752" lon="0.66533">
        <ele>184.6</ele>
        <time>2025-08-06T08:43:15.712Z</time>
      </trkpt>
      <trkpt lat="44.35733" lon="0.66564">
        <ele>181</ele>
        <time>2025-08-06T08:43:39.712Z</time>
      </trkpt>
      <trkpt lat="44.35726" lon="0.6659">
        <ele>181.5</ele>
        <time>2025-08-06T08:43:55.712Z</time>
      </trkpt>
      <trkpt lat="44.35727" lon="0.66599">
        <ele>182.2</ele>
        <time>2025-08-06T08:43:59.712Z</time>
      </trkpt>
      <trkpt lat="44.35727" lon="0.66609">
        <ele>182.9</ele>
        <time>2025-08-06T08:44:05.712Z</time>
      </trkpt>
      <trkpt lat="44.35725" lon="0.66623">
        <ele>183</ele>
        <time>2025-08-06T08:44:13.712Z</time>
      </trkpt>
      <trkpt lat="44.35722" lon="0.66635">
        <ele>182.6</ele>
        <time>2025-08-06T08:44:21.712Z</time>
      </trkpt>
      <trkpt lat="44.3572" lon="0.66648">
        <ele>182.1</ele>
        <time>2025-08-06T08:44:29.712Z</time>
      </trkpt>
      <trkpt lat="44.35716" lon="0.66655">
        <ele>180.9</ele>
        <time>2025-08-06T08:44:33.712Z</time>
      </trkpt>
      <trkpt lat="44.35698" lon="0.66745">
        <ele>180.3</ele>
        <time>2025-08-06T08:45:29.712Z</time>
      </trkpt>
      <trkpt lat="44.35685" lon="0.66762">
        <ele>178.1</ele>
        <time>2025-08-06T08:45:45.712Z</time>
      </trkpt>
      <trkpt lat="44.35683" lon="0.66767">
        <ele>177.9</ele>
        <time>2025-08-06T08:45:49.712Z</time>
      </trkpt>
      <trkpt lat="44.35676" lon="0.66771">
        <ele>176.7</ele>
        <time>2025-08-06T08:45:53.712Z</time>
      </trkpt>
      <trkpt lat="44.35671" lon="0.66771">
        <ele>175.5</ele>
        <time>2025-08-06T08:45:57.712Z</time>
      </trkpt>
      <trkpt lat="44.35662" lon="0.66774">
        <ele>173.7</ele>
        <time>2025-08-06T08:46:05.712Z</time>
      </trkpt>
      <trkpt lat="44.35659" lon="0.66773">
        <ele>172.9</ele>
        <time>2025-08-06T08:46:11.712Z</time>
      </trkpt>
      <trkpt lat="44.35646" lon="0.66787">
        <ele>171.3</ele>
        <time>2025-08-06T08:46:27.712Z</time>
      </trkpt>
      <trkpt lat="44.35642" lon="0.66788">
        <ele>170.4</ele>
        <time>2025-08-06T08:46:33.712Z</time>
      </trkpt>
      <trkpt lat="44.35639" lon="0.66793">
        <ele>170.1</ele>
        <time>2025-08-06T08:46:39.712Z</time>
      </trkpt>
      <trkpt lat="44.35633" lon="0.668">
        <ele>169.1</ele>
        <time>2025-08-06T08:46:51.712Z</time>
      </trkpt>
      <trkpt lat="44.35623" lon="0.66808">
        <ele>166.9</ele>
        <time>2025-08-06T08:47:03.712Z</time>
      </trkpt>
      <trkpt lat="44.35617" lon="0.66822">
        <ele>165.4</ele>
        <time>2025-08-06T08:47:15.712Z</time>
      </trkpt>
      <trkpt lat="44.35616" lon="0.66834">
        <ele>165.3</ele>
        <time>2025-08-06T08:47:25.712Z</time>
      </trkpt>
      <trkpt lat="44.35617" lon="0.66841">
        <ele>165.2</ele>
        <time>2025-08-06T08:47:29.712Z</time>
      </trkpt>
      <trkpt lat="44.35616" lon="0.66873">
        <ele>164</ele>
        <time>2025-08-06T08:48:21.712Z</time>
      </trkpt>
      <trkpt lat="44.35619" lon="0.66889">
        <ele>164.3</ele>
        <time>2025-08-06T08:48:29.712Z</time>
      </trkpt>
      <trkpt lat="44.3562" lon="0.66903">
        <ele>163.5</ele>
        <time>2025-08-06T08:48:37.712Z</time>
      </trkpt>
      <trkpt lat="44.35626" lon="0.6692">
        <ele>163.8</ele>
        <time>2025-08-06T08:48:45.712Z</time>
      </trkpt>
      <trkpt lat="44.35628" lon="0.66934">
        <ele>163</ele>
        <time>2025-08-06T08:48:53.712Z</time>
      </trkpt>
      <trkpt lat="44.35631" lon="0.66947">
        <ele>162.3</ele>
        <time>2025-08-06T08:49:03.712Z</time>
      </trkpt>
      <trkpt lat="44.35643" lon="0.66966">
        <ele>162.1</ele>
        <time>2025-08-06T08:49:19.712Z</time>
      </trkpt>
      <trkpt lat="44.35659" lon="0.66985">
        <ele>162.7</ele>
        <time>2025-08-06T08:49:39.712Z</time>
      </trkpt>
      <trkpt lat="44.35669" lon="0.67001">
        <ele>162.5</ele>
        <time>2025-08-06T08:49:51.712Z</time>
      </trkpt>
      <trkpt lat="44.35681" lon="0.67013">
        <ele>162.9</ele>
        <time>2025-08-06T08:50:03.712Z</time>
      </trkpt>
      <trkpt lat="44.35686" lon="0.67028">
        <ele>161.4</ele>
        <time>2025-08-06T08:50:11.712Z</time>
      </trkpt>
      <trkpt lat="44.35693" lon="0.67036">
        <ele>162.2</ele>
        <time>2025-08-06T08:50:19.712Z</time>
      </trkpt>
      <trkpt lat="44.35703" lon="0.67053">
        <ele>162.3</ele>
        <time>2025-08-06T08:50:29.712Z</time>
      </trkpt>
      <trkpt lat="44.35709" lon="0.67062">
        <ele>163.6</ele>
        <time>2025-08-06T08:50:41.712Z</time>
      </trkpt>
      <trkpt lat="44.35715" lon="0.67072">
        <ele>164.9</ele>
        <time>2025-08-06T08:50:49.712Z</time>
      </trkpt>
      <trkpt lat="44.35717" lon="0.67089">
        <ele>164.6</ele>
        <time>2025-08-06T08:50:57.712Z</time>
      </trkpt>
      <trkpt lat="44.3572" lon="0.67094">
        <ele>165.4</ele>
        <time>2025-08-06T08:51:01.712Z</time>
      </trkpt>
      <trkpt lat="44.35721" lon="0.67103">
        <ele>165.1</ele>
        <time>2025-08-06T08:51:05.712Z</time>
      </trkpt>
      <trkpt lat="44.35725" lon="0.67114">
        <ele>165.7</ele>
        <time>2025-08-06T08:51:13.712Z</time>
      </trkpt>
      <trkpt lat="44.35728" lon="0.67141">
        <ele>164</ele>
        <time>2025-08-06T08:51:29.712Z</time>
      </trkpt>
      <trkpt lat="44.35733" lon="0.67156">
        <ele>164.7</ele>
        <time>2025-08-06T08:51:41.712Z</time>
      </trkpt>
      <trkpt lat="44.35741" lon="0.6718">
        <ele>164.9</ele>
        <time>2025-08-06T08:52:01.712Z</time>
      </trkpt>
      <trkpt lat="44.35742" lon="0.67188">
        <ele>164.4</ele>
        <time>2025-08-06T08:52:09.712Z</time>
      </trkpt>
      <trkpt lat="44.35762" lon="0.67214">
        <ele>166.6</ele>
        <time>2025-08-06T08:52:45.712Z</time>
      </trkpt>
      <trkpt lat="44.35764" lon="0.67219">
        <ele>166.3</ele>
        <time>2025-08-06T08:52:50.712Z</time>
      </trkpt>
      <trkpt lat="44.35772" lon="0.67228">
        <ele>166.8</ele>
        <time>2025-08-06T08:53:04.712Z</time>
      </trkpt>
      <trkpt lat="44.35785" lon="0.67243">
        <ele>168</ele>
        <time>2025-08-06T08:53:20.712Z</time>
      </trkpt>
      <trkpt lat="44.35794" lon="0.67251">
        <ele>169.6</ele>
        <time>2025-08-06T08:53:32.712Z</time>
      </trkpt>
      <trkpt lat="44.35783" lon="0.67285">
        <ele>163.7</ele>
        <time>2025-08-06T08:54:08.712Z</time>
      </trkpt>
      <trkpt lat="44.3578" lon="0.67297">
        <ele>162.2</ele>
        <time>2025-08-06T08:54:16.712Z</time>
      </trkpt>
      <trkpt lat="44.35775" lon="0.67308">
        <ele>160</ele>
        <time>2025-08-06T08:54:24.712Z</time>
      </trkpt>
      <trkpt lat="44.35773" lon="0.67319">
        <ele>158.7</ele>
        <time>2025-08-06T08:54:32.712Z</time>
      </trkpt>
      <trkpt lat="44.35765" lon="0.67344">
        <ele>155</ele>
        <time>2025-08-06T08:54:52.712Z</time>
      </trkpt>
      <trkpt lat="44.35755" lon="0.67355">
        <ele>151.3</ele>
        <time>2025-08-06T08:55:04.712Z</time>
      </trkpt>
      <trkpt lat="44.35754" lon="0.67373">
        <ele>150</ele>
        <time>2025-08-06T08:55:12.712Z</time>
      </trkpt>
      <trkpt lat="44.35751" lon="0.67374">
        <ele>148.7</ele>
        <time>2025-08-06T08:55:16.712Z</time>
      </trkpt>
      <trkpt lat="44.35753" lon="0.67385">
        <ele>149.4</ele>
        <time>2025-08-06T08:55:22.712Z</time>
      </trkpt>
      <trkpt lat="44.35743" lon="0.67404">
        <ele>144.7</ele>
        <time>2025-08-06T08:55:38.712Z</time>
      </trkpt>
      <trkpt lat="44.35743" lon="0.67417">
        <ele>143.8</ele>
        <time>2025-08-06T08:55:46.712Z</time>
      </trkpt>
      <trkpt lat="44.35742" lon="0.67417">
        <ele>143.4</ele>
        <time>2025-08-06T08:55:48.712Z</time>
      </trkpt>
      <trkpt lat="44.35739" lon="0.67423">
        <ele>141.8</ele>
        <time>2025-08-06T08:56:42.712Z</time>
      </trkpt>
      <trkpt lat="44.35732" lon="0.67422">
        <ele>139.4</ele>
        <time>2025-08-06T08:57:10.712Z</time>
      </trkpt>
      <trkpt lat="44.35723" lon="0.67418">
        <ele>137</ele>
        <time>2025-08-06T08:57:18.712Z</time>
      </trkpt>
      <trkpt lat="44.35711" lon="0.6741">
        <ele>133.9</ele>
        <time>2025-08-06T08:57:34.712Z</time>
      </trkpt>
      <trkpt lat="44.35707" lon="0.6741">
        <ele>132.6</ele>
        <time>2025-08-06T08:57:38.712Z</time>
      </trkpt>
      <trkpt lat="44.35701" lon="0.67404">
        <ele>131</ele>
        <time>2025-08-06T08:57:42.712Z</time>
      </trkpt>
      <trkpt lat="44.35673" lon="0.67387">
        <ele>124.6</ele>
        <time>2025-08-06T08:58:02.712Z</time>
      </trkpt>
      <trkpt lat="44.35663" lon="0.67373">
        <ele>123.6</ele>
        <time>2025-08-06T08:58:14.712Z</time>
      </trkpt>
      <trkpt lat="44.35648" lon="0.67383">
        <ele>120.1</ele>
        <time>2025-08-06T08:58:42.712Z</time>
      </trkpt>
      <trkpt lat="44.35645" lon="0.67382">
        <ele>119.5</ele>
        <time>2025-08-06T08:58:46.712Z</time>
      </trkpt>
      <trkpt lat="44.35632" lon="0.67389">
        <ele>116.7</ele>
        <time>2025-08-06T08:58:58.712Z</time>
      </trkpt>
      <trkpt lat="44.35604" lon="0.67413">
        <ele>111.7</ele>
        <time>2025-08-06T08:59:30.712Z</time>
      </trkpt>
      <trkpt lat="44.35579" lon="0.67427">
        <ele>107.5</ele>
        <time>2025-08-06T09:00:10.712Z</time>
      </trkpt>
      <trkpt lat="44.35553" lon="0.6745">
        <ele>103.5</ele>
        <time>2025-08-06T09:00:42.712Z</time>
      </trkpt>
      <trkpt lat="44.35532" lon="0.67462">
        <ele>101.3</ele>
        <time>2025-08-06T09:01:14.712Z</time>
      </trkpt>
      <trkpt lat="44.35518" lon="0.67467">
        <ele>100.6</ele>
        <time>2025-08-06T09:01:26.712Z</time>
      </trkpt>
      <trkpt lat="44.35492" lon="0.67467">
        <ele>100</ele>
        <time>2025-08-06T09:01:50.712Z</time>
      </trkpt>
      <trkpt lat="44.35489" lon="0.67464">
        <ele>100</ele>
        <time>2025-08-06T09:01:54.712Z</time>
      </trkpt>
      <trkpt lat="44.35491" lon="0.67442">
        <ele>100</ele>
        <time>2025-08-06T09:02:10.712Z</time>
      </trkpt>
      <trkpt lat="44.35496" lon="0.67414">
        <ele>100.1</ele>
        <time>2025-08-06T09:02:26.712Z</time>
      </trkpt>
      <trkpt lat="44.35497" lon="0.67382">
        <ele>100.9</ele>
        <time>2025-08-06T09:02:42.712Z</time>
      </trkpt>
      <trkpt lat="44.355" lon="0.67368">
        <ele>101</ele>
        <time>2025-08-06T09:02:50.712Z</time>
      </trkpt>
      <trkpt lat="44.35506" lon="0.67353">
        <ele>101.9</ele>
        <time>2025-08-06T09:03:06.712Z</time>
      </trkpt>
      <trkpt lat="44.35513" lon="0.67326">
        <ele>103.2</ele>
        <time>2025-08-06T09:03:22.712Z</time>
      </trkpt>
      <trkpt lat="44.35536" lon="0.67204">
        <ele>107.6</ele>
        <time>2025-08-06T09:04:34.712Z</time>
      </trkpt>
      <trkpt lat="44.35537" lon="0.6719">
        <ele>108.7</ele>
        <time>2025-08-06T09:04:42.712Z</time>
      </trkpt>
      <trkpt lat="44.35532" lon="0.67164">
        <ele>110.9</ele>
        <time>2025-08-06T09:04:58.712Z</time>
      </trkpt>
      <trkpt lat="44.35508" lon="0.67091">
        <ele>114.7</ele>
        <time>2025-08-06T09:05:46.712Z</time>
      </trkpt>
      <trkpt lat="44.35506" lon="0.67079">
        <ele>115.1</ele>
        <time>2025-08-06T09:05:54.712Z</time>
      </trkpt>
      <trkpt lat="44.355" lon="0.67">
        <ele>120.1</ele>
        <time>2025-08-06T09:06:42.712Z</time>
      </trkpt>
      <trkpt lat="44.35493" lon="0.66972">
        <ele>120.7</ele>
        <time>2025-08-06T09:07:02.712Z</time>
      </trkpt>
      <trkpt lat="44.35489" lon="0.66968">
        <ele>120.2</ele>
        <time>2025-08-06T09:07:06.712Z</time>
      </trkpt>
      <trkpt lat="44.35483" lon="0.66949">
        <ele>120.8</ele>
        <time>2025-08-06T09:07:30.712Z</time>
      </trkpt>
      <trkpt lat="44.35484" lon="0.66938">
        <ele>121.3</ele>
        <time>2025-08-06T09:07:38.712Z</time>
      </trkpt>
      <trkpt lat="44.35483" lon="0.66913">
        <ele>121.1</ele>
        <time>2025-08-06T09:08:10.712Z</time>
      </trkpt>
      <trkpt lat="44.35483" lon="0.66878">
        <ele>121.2</ele>
        <time>2025-08-06T09:08:58.712Z</time>
      </trkpt>
      <trkpt lat="44.3548" lon="0.66868">
        <ele>120.6</ele>
        <time>2025-08-06T09:09:06.712Z</time>
      </trkpt>
      <trkpt lat="44.35469" lon="0.66846">
        <ele>118.5</ele>
        <time>2025-08-06T09:09:22.712Z</time>
      </trkpt>
      <trkpt lat="44.35464" lon="0.66789">
        <ele>117.8</ele>
        <time>2025-08-06T09:10:10.712Z</time>
      </trkpt>
      <trkpt lat="44.35463" lon="0.66735">
        <ele>119</ele>
        <time>2025-08-06T09:10:42.712Z</time>
      </trkpt>
      <trkpt lat="44.3546" lon="0.66713">
        <ele>119.4</ele>
        <time>2025-08-06T09:10:58.712Z</time>
      </trkpt>
      <trkpt lat="44.35443" lon="0.66655">
        <ele>116.3</ele>
        <time>2025-08-06T09:12:10.712Z</time>
      </trkpt>
      <trkpt lat="44.35445" lon="0.66638">
        <ele>116</ele>
        <time>2025-08-06T09:13:22.712Z</time>
      </trkpt>
      <trkpt lat="44.35448" lon="0.66625">
        <ele>115.9</ele>
        <time>2025-08-06T09:13:30.712Z</time>
      </trkpt>
      <trkpt lat="44.35484" lon="0.66565">
        <ele>115.4</ele>
        <time>2025-08-06T09:14:18.712Z</time>
      </trkpt>
      <trkpt lat="44.35489" lon="0.66554">
        <ele>115.2</ele>
        <time>2025-08-06T09:14:26.712Z</time>
      </trkpt>
      <trkpt lat="44.35493" lon="0.66528">
        <ele>115.2</ele>
        <time>2025-08-06T09:14:42.712Z</time>
      </trkpt>
      <trkpt lat="44.35503" lon="0.66474">
        <ele>115.4</ele>
        <time>2025-08-06T09:15:14.712Z</time>
      </trkpt>
      <trkpt lat="44.35517" lon="0.66426">
        <ele>116.2</ele>
        <time>2025-08-06T09:15:46.712Z</time>
      </trkpt>
      <trkpt lat="44.35546" lon="0.6635">
        <ele>117</ele>
        <time>2025-08-06T09:16:42.712Z</time>
      </trkpt>
      <trkpt lat="44.35547" lon="0.66338">
        <ele>116.8</ele>
        <time>2025-08-06T09:16:50.712Z</time>
      </trkpt>
      <trkpt lat="44.35544" lon="0.66311">
        <ele>116.1</ele>
        <time>2025-08-06T09:17:06.712Z</time>
      </trkpt>
      <trkpt lat="44.35544" lon="0.66279">
        <ele>117</ele>
        <time>2025-08-06T09:17:30.712Z</time>
      </trkpt>
      <trkpt lat="44.35542" lon="0.66274">
        <ele>117</ele>
        <time>2025-08-06T09:17:34.712Z</time>
      </trkpt>
      <trkpt lat="44.35536" lon="0.66268">
        <ele>117</ele>
        <time>2025-08-06T09:17:42.712Z</time>
      </trkpt>
      <trkpt lat="44.35515" lon="0.66263">
        <ele>118.7</ele>
        <time>2025-08-06T09:18:02.712Z</time>
      </trkpt>
      <trkpt lat="44.35507" lon="0.66259">
        <ele>119.7</ele>
        <time>2025-08-06T09:18:10.712Z</time>
      </trkpt>
      <trkpt lat="44.35503" lon="0.66258">
        <ele>120.3</ele>
        <time>2025-08-06T09:18:14.712Z</time>
      </trkpt>
      <trkpt lat="44.35501" lon="0.6626">
        <ele>120.6</ele>
        <time>2025-08-06T09:18:18.712Z</time>
      </trkpt>
      <trkpt lat="44.35497" lon="0.66286">
        <ele>119.7</ele>
        <time>2025-08-06T09:18:38.712Z</time>
      </trkpt>
      <trkpt lat="44.35486" lon="0.66308">
        <ele>119.4</ele>
        <time>2025-08-06T09:18:56.712Z</time>
      </trkpt>
      <trkpt lat="44.35487" lon="0.6631">
        <ele>119.2</ele>
        <time>2025-08-06T09:18:58.712Z</time>
      </trkpt>
      <trkpt lat="44.35473" lon="0.66337">
        <ele>118.8</ele>
        <time>2025-08-06T09:19:14.712Z</time>
      </trkpt>
      <trkpt lat="44.35469" lon="0.66342">
        <ele>119.1</ele>
        <time>2025-08-06T09:19:18.712Z</time>
      </trkpt>
      <trkpt lat="44.35465" lon="0.66366">
        <ele>118.4</ele>
        <time>2025-08-06T09:19:34.712Z</time>
      </trkpt>
      <trkpt lat="44.35459" lon="0.6638">
        <ele>117.8</ele>
        <time>2025-08-06T09:19:42.712Z</time>
      </trkpt>
      <trkpt lat="44.35446" lon="0.66404">
        <ele>116.8</ele>
        <time>2025-08-06T09:19:58.712Z</time>
      </trkpt>
      <trkpt lat="44.35422" lon="0.66423">
        <ele>117.2</ele>
        <time>2025-08-06T09:20:22.712Z</time>
      </trkpt>
      <trkpt lat="44.35415" lon="0.66433">
        <ele>117</ele>
        <time>2025-08-06T09:20:30.712Z</time>
      </trkpt>
      <trkpt lat="44.35411" lon="0.66436">
        <ele>117.3</ele>
        <time>2025-08-06T09:20:34.712Z</time>
      </trkpt>
      <trkpt lat="44.35398" lon="0.66454">
        <ele>117</ele>
        <time>2025-08-06T09:20:50.712Z</time>
      </trkpt>
      <trkpt lat="44.3539" lon="0.66463">
        <ele>116.9</ele>
        <time>2025-08-06T09:20:58.712Z</time>
      </trkpt>
      <trkpt lat="44.35384" lon="0.66475">
        <ele>116.2</ele>
        <time>2025-08-06T09:21:06.712Z</time>
      </trkpt>
      <trkpt lat="44.35377" lon="0.66485">
        <ele>116</ele>
        <time>2025-08-06T09:21:14.712Z</time>
      </trkpt>
      <trkpt lat="44.35373" lon="0.66487">
        <ele>116.1</ele>
        <time>2025-08-06T09:21:18.712Z</time>
      </trkpt>
      <trkpt lat="44.35363" lon="0.66497">
        <ele>116.1</ele>
        <time>2025-08-06T09:21:30.712Z</time>
      </trkpt>
      <trkpt lat="44.35365" lon="0.66495">
        <ele>116.1</ele>
        <time>2025-08-06T09:21:38.712Z</time>
      </trkpt>
      <trkpt lat="44.35351" lon="0.66501">
        <ele>115.9</ele>
        <time>2025-08-06T09:21:58.712Z</time>
      </trkpt>
      <trkpt lat="44.35342" lon="0.66498">
        <ele>116.1</ele>
        <time>2025-08-06T09:22:06.712Z</time>
      </trkpt>
      <trkpt lat="44.35333" lon="0.66501">
        <ele>115.9</ele>
        <time>2025-08-06T09:22:14.712Z</time>
      </trkpt>
      <trkpt lat="44.35328" lon="0.665">
        <ele>115.8</ele>
        <time>2025-08-06T09:22:18.712Z</time>
      </trkpt>
      <trkpt lat="44.35323" lon="0.66498">
        <ele>115.8</ele>
        <time>2025-08-06T09:22:22.712Z</time>
      </trkpt>
      <trkpt lat="44.35314" lon="0.66489">
        <ele>116.1</ele>
        <time>2025-08-06T09:22:30.712Z</time>
      </trkpt>
      <trkpt lat="44.35303" lon="0.6647">
        <ele>116.9</ele>
        <time>2025-08-06T09:22:46.712Z</time>
      </trkpt>
      <trkpt lat="44.35293" lon="0.6646">
        <ele>116.5</ele>
        <time>2025-08-06T09:23:02.712Z</time>
      </trkpt>
      <trkpt lat="44.35285" lon="0.66449">
        <ele>116.4</ele>
        <time>2025-08-06T09:23:18.712Z</time>
      </trkpt>
      <trkpt lat="44.3527" lon="0.66436">
        <ele>115.9</ele>
        <time>2025-08-06T09:23:34.712Z</time>
      </trkpt>
      <trkpt lat="44.35248" lon="0.66423">
        <ele>115</ele>
        <time>2025-08-06T09:24:14.712Z</time>
      </trkpt>
      <trkpt lat="44.35233" lon="0.66417">
        <ele>115</ele>
        <time>2025-08-06T09:24:30.712Z</time>
      </trkpt>
      <trkpt lat="44.35208" lon="0.66402">
        <ele>116.5</ele>
        <time>2025-08-06T09:24:54.712Z</time>
      </trkpt>
      <trkpt lat="44.3519" lon="0.66397">
        <ele>117.4</ele>
        <time>2025-08-06T09:25:10.712Z</time>
      </trkpt>
      <trkpt lat="44.35157" lon="0.66383">
        <ele>118.7</ele>
        <time>2025-08-06T09:25:42.712Z</time>
      </trkpt>
      <trkpt lat="44.35098" lon="0.66352">
        <ele>118.5</ele>
        <time>2025-08-06T09:26:38.712Z</time>
      </trkpt>
      <trkpt lat="44.3509" lon="0.66351">
        <ele>118.2</ele>
        <time>2025-08-06T09:26:46.712Z</time>
      </trkpt>
      <trkpt lat="44.35076" lon="0.66353">
        <ele>117.3</ele>
        <time>2025-08-06T09:27:02.712Z</time>
      </trkpt>
      <trkpt lat="44.35045" lon="0.66323">
        <ele>117</ele>
        <time>2025-08-06T09:27:34.712Z</time>
      </trkpt>
      <trkpt lat="44.35039" lon="0.66314">
        <ele>117.1</ele>
        <time>2025-08-06T09:27:42.712Z</time>
      </trkpt>
      <trkpt lat="44.35035" lon="0.6631">
        <ele>117.1</ele>
        <time>2025-08-06T09:27:46.712Z</time>
      </trkpt>
      <trkpt lat="44.35019" lon="0.66288">
        <ele>118.1</ele>
        <time>2025-08-06T09:28:06.712Z</time>
      </trkpt>
      <trkpt lat="44.35008" lon="0.66272">
        <ele>118.3</ele>
        <time>2025-08-06T09:28:18.712Z</time>
      </trkpt>
      <trkpt lat="44.34995" lon="0.66253">
        <ele>117.8</ele>
        <time>2025-08-06T09:28:34.712Z</time>
      </trkpt>
      <trkpt lat="44.34965" lon="0.66199">
        <ele>118.8</ele>
        <time>2025-08-06T09:29:22.712Z</time>
      </trkpt>
      <trkpt lat="44.34949" lon="0.66184">
        <ele>119.1</ele>
        <time>2025-08-06T09:29:38.712Z</time>
      </trkpt>
      <trkpt lat="44.34943" lon="0.66182">
        <ele>119</ele>
        <time>2025-08-06T09:29:42.712Z</time>
      </trkpt>
      <trkpt lat="44.34938" lon="0.66171">
        <ele>119</ele>
      </trkpt>
      <trkpt lat="44.34924" lon="0.66175">
        <ele>118.8</ele>
        <time>2025-08-06T09:30:00.712Z</time>
      </trkpt>
      <trkpt lat="44.34919" lon="0.66191">
        <ele>118.2</ele>
        <time>2025-08-06T09:30:16.712Z</time>
      </trkpt>
      <trkpt lat="44.34915" lon="0.66206">
        <ele>118.1</ele>
        <time>2025-08-06T09:30:28.712Z</time>
      </trkpt>
      <trkpt lat="44.34907" lon="0.6621">
        <ele>118.4</ele>
        <time>2025-08-06T09:30:44.712Z</time>
      </trkpt>
      <trkpt lat="44.34883" lon="0.66201">
        <ele>119.1</ele>
        <time>2025-08-06T09:31:32.712Z</time>
      </trkpt>
      <trkpt lat="44.34885" lon="0.66202">
        <ele>119.1</ele>
        <time>2025-08-06T09:32:04.712Z</time>
      </trkpt>
      <trkpt lat="44.34876" lon="0.66196">
        <ele>119</ele>
        <time>2025-08-06T09:32:20.712Z</time>
      </trkpt>
      <trkpt lat="44.34861" lon="0.66189">
        <ele>119.2</ele>
        <time>2025-08-06T09:32:36.712Z</time>
      </trkpt>
      <trkpt lat="44.34843" lon="0.66184">
        <ele>120.2</ele>
        <time>2025-08-06T09:32:48.712Z</time>
      </trkpt>
      <trkpt lat="44.34836" lon="0.6618">
        <ele>120.4</ele>
        <time>2025-08-06T09:32:52.712Z</time>
      </trkpt>
      <trkpt lat="44.3481" lon="0.66174">
        <ele>121.3</ele>
        <time>2025-08-06T09:33:08.712Z</time>
      </trkpt>
      <trkpt lat="44.34793" lon="0.66173">
        <ele>122.3</ele>
        <time>2025-08-06T09:33:24.712Z</time>
      </trkpt>
      <trkpt lat="44.34761" lon="0.6616">
        <ele>123.4</ele>
        <time>2025-08-06T09:33:52.712Z</time>
      </trkpt>
      <trkpt lat="44.34747" lon="0.66151">
        <ele>123.6</ele>
        <time>2025-08-06T09:34:04.712Z</time>
      </trkpt>
      <trkpt lat="44.34715" lon="0.6614">
        <ele>124.3</ele>
        <time>2025-08-06T09:34:28.712Z</time>
      </trkpt>
      <trkpt lat="44.34712" lon="0.66138">
        <ele>124.4</ele>
        <time>2025-08-06T09:34:32.712Z</time>
      </trkpt>
      <trkpt lat="44.34687" lon="0.66128">
        <ele>124.9</ele>
        <time>2025-08-06T09:34:56.712Z</time>
      </trkpt>
      <trkpt lat="44.3468" lon="0.66118">
        <ele>124.8</ele>
        <time>2025-08-06T09:35:04.712Z</time>
      </trkpt>
      <trkpt lat="44.3468" lon="0.66105">
        <ele>124.8</ele>
        <time>2025-08-06T09:35:12.712Z</time>
      </trkpt>
      <trkpt lat="44.34682" lon="0.66097">
        <ele>125.3</ele>
        <time>2025-08-06T09:35:20.712Z</time>
      </trkpt>
      <trkpt lat="44.34685" lon="0.66088">
        <ele>125.7</ele>
        <time>2025-08-06T09:35:28.712Z</time>
      </trkpt>
      <trkpt lat="44.34689" lon="0.66072">
        <ele>126.7</ele>
        <time>2025-08-06T09:35:44.712Z</time>
      </trkpt>
      <trkpt lat="44.34689" lon="0.66066">
        <ele>127</ele>
        <time>2025-08-06T09:36:00.712Z</time>
      </trkpt>
      <trkpt lat="44.3468" lon="0.66048">
        <ele>127.5</ele>
        <time>2025-08-06T09:36:20.712Z</time>
      </trkpt>
      <trkpt lat="44.34673" lon="0.66043">
        <ele>127.4</ele>
        <time>2025-08-06T09:36:28.712Z</time>
      </trkpt>
      <trkpt lat="44.34652" lon="0.66001">
        <ele>131.5</ele>
        <time>2025-08-06T09:37:00.712Z</time>
      </trkpt>
      <trkpt lat="44.34633" lon="0.65973">
        <ele>136.2</ele>
        <time>2025-08-06T09:37:32.712Z</time>
      </trkpt>
      <trkpt lat="44.34613" lon="0.65949">
        <ele>141.5</ele>
        <time>2025-08-06T09:38:04.712Z</time>
      </trkpt>
      <trkpt lat="44.3461" lon="0.65949">
        <ele>142.1</ele>
        <time>2025-08-06T09:38:36.712Z</time>
      </trkpt>
      <trkpt lat="44.34599" lon="0.65931">
        <ele>146.4</ele>
        <time>2025-08-06T09:39:00.712Z</time>
      </trkpt>
      <trkpt lat="44.3457" lon="0.65897">
        <ele>157.5</ele>
        <time>2025-08-06T09:40:04.712Z</time>
      </trkpt>
      <trkpt lat="44.34568" lon="0.65897">
        <ele>158</ele>
        <time>2025-08-06T09:40:08.712Z</time>
      </trkpt>
      <trkpt lat="44.34564" lon="0.65893">
        <ele>159.3</ele>
        <time>2025-08-06T09:40:16.712Z</time>
      </trkpt>
      <trkpt lat="44.34547" lon="0.65891">
        <ele>163.8</ele>
        <time>2025-08-06T09:40:48.712Z</time>
      </trkpt>
      <trkpt lat="44.3454" lon="0.65897">
        <ele>164.6</ele>
        <time>2025-08-06T09:41:20.712Z</time>
      </trkpt>
      <trkpt lat="44.34539" lon="0.65902">
        <ele>164</ele>
        <time>2025-08-06T09:41:44.712Z</time>
      </trkpt>
      <trkpt lat="44.34525" lon="0.65915">
        <ele>164.3</ele>
        <time>2025-08-06T09:43:20.712Z</time>
      </trkpt>
      <trkpt lat="44.34515" lon="0.65912">
        <ele>165</ele>
        <time>2025-08-06T09:43:28.712Z</time>
      </trkpt>
      <trkpt lat="44.34511" lon="0.65912">
        <ele>165</ele>
        <time>2025-08-06T09:43:32.712Z</time>
      </trkpt>
      <trkpt lat="44.34501" lon="0.65913">
        <ele>164.8</ele>
        <time>2025-08-06T09:43:40.712Z</time>
      </trkpt>
      <trkpt lat="44.34484" lon="0.65899">
        <ele>165.9</ele>
        <time>2025-08-06T09:43:56.712Z</time>
      </trkpt>
      <trkpt lat="44.34479" lon="0.65897">
        <ele>165.8</ele>
        <time>2025-08-06T09:44:00.712Z</time>
      </trkpt>
      <trkpt lat="44.34471" lon="0.6589">
        <ele>166.6</ele>
        <time>2025-08-06T09:44:08.712Z</time>
      </trkpt>
      <trkpt lat="44.34448" lon="0.65876">
        <ele>166.2</ele>
        <time>2025-08-06T09:44:32.712Z</time>
      </trkpt>
      <trkpt lat="44.34431" lon="0.65872">
        <ele>165.1</ele>
        <time>2025-08-06T09:44:48.712Z</time>
      </trkpt>
      <trkpt lat="44.34413" lon="0.65864">
        <ele>165.9</ele>
        <time>2025-08-06T09:45:06.712Z</time>
      </trkpt>
      <trkpt lat="44.34407" lon="0.6586">
        <ele>167</ele>
        <time>2025-08-06T09:45:14.712Z</time>
      </trkpt>
      <trkpt lat="44.34393" lon="0.65856">
        <ele>168.3</ele>
        <time>2025-08-06T09:45:30.712Z</time>
      </trkpt>
      <trkpt lat="44.3437" lon="0.6586">
        <ele>166.6</ele>
        <time>2025-08-06T09:45:50.712Z</time>
      </trkpt>
      <trkpt lat="44.34346" lon="0.6585">
        <ele>169.5</ele>
        <time>2025-08-06T09:46:14.712Z</time>
      </trkpt>
      <trkpt lat="44.3433" lon="0.65851">
        <ele>167.4</ele>
        <time>2025-08-06T09:46:30.712Z</time>
      </trkpt>
      <trkpt lat="44.34316" lon="0.65837">
        <ele>167.5</ele>
        <time>2025-08-06T09:46:42.712Z</time>
      </trkpt>
      <trkpt lat="44.34311" lon="0.65823">
        <ele>169.6</ele>
        <time>2025-08-06T09:46:50.712Z</time>
      </trkpt>
      <trkpt lat="44.34307" lon="0.65798">
        <ele>175.1</ele>
        <time>2025-08-06T09:47:06.712Z</time>
      </trkpt>
      <trkpt lat="44.34303" lon="0.65788">
        <ele>177.4</ele>
        <time>2025-08-06T09:47:14.712Z</time>
      </trkpt>
      <trkpt lat="44.34296" lon="0.65781">
        <ele>177.7</ele>
        <time>2025-08-06T09:47:22.712Z</time>
      </trkpt>
      <trkpt lat="44.34292" lon="0.65779">
        <ele>177</ele>
        <time>2025-08-06T09:47:26.712Z</time>
      </trkpt>
      <trkpt lat="44.34278" lon="0.65783">
        <ele>170.9</ele>
        <time>2025-08-06T09:47:38.712Z</time>
      </trkpt>
      <trkpt lat="44.34271" lon="0.65781">
        <ele>171</ele>
        <time>2025-08-06T09:47:46.712Z</time>
      </trkpt>
      <trkpt lat="44.34262" lon="0.65784">
        <ele>169.6</ele>
        <time>2025-08-06T09:47:54.712Z</time>
      </trkpt>
      <trkpt lat="44.34253" lon="0.65788">
        <ele>167.5</ele>
        <time>2025-08-06T09:48:18.712Z</time>
      </trkpt>
      <trkpt lat="44.34242" lon="0.65785">
        <ele>169.5</ele>
        <time>2025-08-06T09:49:50.712Z</time>
      </trkpt>
      <trkpt lat="44.34239" lon="0.6579">
        <ele>168.5</ele>
        <time>2025-08-06T09:49:58.712Z</time>
      </trkpt>
      <trkpt lat="44.34233" lon="0.65799">
        <ele>166.3</ele>
        <time>2025-08-06T09:50:10.712Z</time>
      </trkpt>
      <trkpt lat="44.34226" lon="0.65807">
        <ele>164.9</ele>
        <time>2025-08-06T09:50:18.712Z</time>
      </trkpt>
      <trkpt lat="44.34223" lon="0.65813">
        <ele>163.7</ele>
        <time>2025-08-06T09:50:22.712Z</time>
      </trkpt>
      <trkpt lat="44.34219" lon="0.65817">
        <ele>163.6</ele>
        <time>2025-08-06T09:50:26.712Z</time>
      </trkpt>
      <trkpt lat="44.34213" lon="0.65828">
        <ele>161.7</ele>
        <time>2025-08-06T09:50:34.712Z</time>
      </trkpt>
      <trkpt lat="44.34207" lon="0.65834">
        <ele>161.9</ele>
        <time>2025-08-06T09:50:40.712Z</time>
      </trkpt>
      <trkpt lat="44.34189" lon="0.65834">
        <ele>166.1</ele>
        <time>2025-08-06T09:50:52.712Z</time>
      </trkpt>
      <trkpt lat="44.34182" lon="0.6583">
        <ele>168.8</ele>
        <time>2025-08-06T09:50:56.712Z</time>
      </trkpt>
      <trkpt lat="44.34174" lon="0.6583">
        <ele>170.3</ele>
        <time>2025-08-06T09:51:04.712Z</time>
      </trkpt>
      <trkpt lat="44.34163" lon="0.65826">
        <ele>173.8</ele>
        <time>2025-08-06T09:51:16.712Z</time>
      </trkpt>
      <trkpt lat="44.34159" lon="0.65823">
        <ele>175.4</ele>
        <time>2025-08-06T09:51:20.712Z</time>
      </trkpt>
      <trkpt lat="44.34158" lon="0.65816">
        <ele>177.7</ele>
        <time>2025-08-06T09:51:24.712Z</time>
      </trkpt>
      <trkpt lat="44.34163" lon="0.65806">
        <ele>179.6</ele>
        <time>2025-08-06T09:51:32.712Z</time>
      </trkpt>
      <trkpt lat="44.34167" lon="0.65803">
        <ele>179.7</ele>
        <time>2025-08-06T09:51:36.712Z</time>
      </trkpt>
      <trkpt lat="44.34171" lon="0.65792">
        <ele>181.5</ele>
        <time>2025-08-06T09:51:44.712Z</time>
      </trkpt>
      <trkpt lat="44.34171" lon="0.65788">
        <ele>182.5</ele>
        <time>2025-08-06T09:51:46.712Z</time>
      </trkpt>
      <trkpt lat="44.34185" lon="0.65781">
        <ele>181.8</ele>
        <time>2025-08-06T09:52:02.712Z</time>
      </trkpt>
      <trkpt lat="44.34188" lon="0.65774">
        <ele>183.1</ele>
        <time>2025-08-06T09:52:10.712Z</time>
      </trkpt>
      <trkpt lat="44.34189" lon="0.65766">
        <ele>184.9</ele>
        <time>2025-08-06T09:52:18.712Z</time>
      </trkpt>
      <trkpt lat="44.3419" lon="0.65765">
        <ele>184.9</ele>
        <time>2025-08-06T09:52:22.712Z</time>
      </trkpt>
      <trkpt lat="44.34194" lon="0.65757">
        <ele>186.4</ele>
        <time>2025-08-06T09:52:34.712Z</time>
      </trkpt>
      <trkpt lat="44.34194" lon="0.65753">
        <ele>187.3</ele>
        <time>2025-08-06T09:52:42.712Z</time>
      </trkpt>
      <trkpt lat="44.34189" lon="0.65749">
        <ele>188.9</ele>
        <time>2025-08-06T09:52:54.712Z</time>
      </trkpt>
      <trkpt lat="44.3418" lon="0.6575">
        <ele>190.1</ele>
        <time>2025-08-06T09:53:02.712Z</time>
      </trkpt>
      <trkpt lat="44.34176" lon="0.65749">
        <ele>190.8</ele>
        <time>2025-08-06T09:53:06.712Z</time>
      </trkpt>
      <trkpt lat="44.34172" lon="0.65742">
        <ele>191.9</ele>
        <time>2025-08-06T09:53:14.712Z</time>
      </trkpt>
      <trkpt lat="44.34165" lon="0.65737">
        <ele>193.1</ele>
        <time>2025-08-06T09:53:30.712Z</time>
      </trkpt>
      <trkpt lat="44.34149" lon="0.65711">
        <ele>195.4</ele>
        <time>2025-08-06T09:53:58.712Z</time>
      </trkpt>
      <trkpt lat="44.34135" lon="0.6571">
        <ele>196</ele>
        <time>2025-08-06T09:54:32.712Z</time>
      </trkpt>
    </trkseg>
  </trk>
</gpx>